createdAt,value
2023-03-17T00:01:18.734Z,6.41
2023-03-17T00:03:47.402Z,6.23
2023-03-17T00:06:13.849Z,6.42
2023-03-17T00:08:41.574Z,6.49
2023-03-17T00:11:09.145Z,6.56
2023-03-17T00:13:35.738Z,6.73
2023-03-17T00:16:04.412Z,6.90
2023-03-17T00:18:31.943Z,6.96
2023-03-17T00:21:00.534Z,6.97
2023-03-17T00:23:27.121Z,7.01
2023-03-17T00:25:53.710Z,6.39
2023-03-17T00:28:21.297Z,5.65
2023-03-17T00:30:47.875Z,5.68
2023-03-17T00:33:15.464Z,5.92
2023-03-17T00:35:42.064Z,6.20
2023-03-17T00:38:08.645Z,6.39
2023-03-17T00:40:36.252Z,6.52
2023-03-17T00:43:03.835Z,6.62
2023-03-17T00:45:30.441Z,6.74
2023-03-17T00:47:56.879Z,6.82
2023-03-17T00:50:23.617Z,6.83
2023-03-17T00:52:51.214Z,6.88
2023-03-17T00:55:17.605Z,6.88
2023-03-17T00:57:44.034Z,6.92
2023-03-17T01:00:10.430Z,6.93
2023-03-17T01:02:36.840Z,6.79
2023-03-17T01:05:06.690Z,6.77
2023-03-17T01:07:33.961Z,6.81
2023-03-17T01:10:00.535Z,6.84
2023-03-17T01:12:29.136Z,6.88
2023-03-17T01:14:56.745Z,6.73
2023-03-17T01:17:24.330Z,6.76
2023-03-17T01:19:50.933Z,6.80
2023-03-17T01:22:17.524Z,6.52
2023-03-17T01:24:46.123Z,6.51
2023-03-17T01:27:12.715Z,6.63
2023-03-17T01:29:41.308Z,6.79
2023-03-17T01:32:07.889Z,6.94
2023-03-17T01:34:34.322Z,7.02
2023-03-17T01:37:00.739Z,7.05
2023-03-17T01:39:28.694Z,7.04
2023-03-17T01:41:56.273Z,7.03
2023-03-17T01:44:23.875Z,7.04
2023-03-17T01:46:50.321Z,6.86
2023-03-17T01:49:16.787Z,6.66
2023-03-17T01:51:43.213Z,6.68
2023-03-17T01:54:09.674Z,6.75
2023-03-17T01:56:36.095Z,6.74
2023-03-17T01:59:03.427Z,6.56
2023-03-17T02:01:31.048Z,6.61
2023-03-17T02:03:58.654Z,6.68
2023-03-17T02:06:26.228Z,6.65
2023-03-17T02:08:52.693Z,6.69
2023-03-17T02:11:19.129Z,6.62
2023-03-17T02:13:45.584Z,6.47
2023-03-17T02:16:12.612Z,6.28
2023-03-17T02:18:40.208Z,6.26
2023-03-17T02:21:06.650Z,6.37
2023-03-17T02:23:33.078Z,6.44
2023-03-17T02:25:59.530Z,6.50
2023-03-17T02:28:27.598Z,6.60
2023-03-17T02:30:54.241Z,6.66
2023-03-17T02:33:21.818Z,6.68
2023-03-17T02:35:49.449Z,6.69
2023-03-17T02:38:17.005Z,6.54
2023-03-17T02:40:43.594Z,6.53
2023-03-17T02:43:11.184Z,6.51
2023-03-17T02:45:39.790Z,6.46
2023-03-17T02:48:08.382Z,6.32
2023-03-17T02:50:35.998Z,6.10
2023-03-17T02:53:03.577Z,6.02
2023-03-17T02:55:30.224Z,6.10
2023-03-17T02:57:57.758Z,6.10
2023-03-17T03:00:25.357Z,6.09
2023-03-17T03:02:52.029Z,6.19
2023-03-17T03:05:18.918Z,6.29
2023-03-17T03:07:45.370Z,6.32
2023-03-17T03:10:12.829Z,6.35
2023-03-17T03:12:40.345Z,6.36
2023-03-17T03:15:07.911Z,6.37
2023-03-17T03:17:34.361Z,6.37
2023-03-17T03:20:00.801Z,6.38
2023-03-17T03:22:27.238Z,6.33
2023-03-17T03:24:54.255Z,6.08
2023-03-17T03:27:20.895Z,5.88
2023-03-17T03:29:48.439Z,5.81
2023-03-17T03:32:15.017Z,5.91
2023-03-17T03:34:41.861Z,5.96
2023-03-17T03:37:08.276Z,6.03
2023-03-17T03:39:35.822Z,6.07
2023-03-17T03:42:02.540Z,6.02
2023-03-17T03:44:30.121Z,5.70
2023-03-17T03:46:58.708Z,5.66
2023-03-17T03:49:25.308Z,5.67
2023-03-17T03:51:51.740Z,5.56
2023-03-17T03:54:18.478Z,5.43
2023-03-17T03:56:45.071Z,5.41
2023-03-17T03:59:11.480Z,5.49
2023-03-17T04:01:38.266Z,5.63
2023-03-17T04:04:04.865Z,5.75
2023-03-17T04:06:31.455Z,5.75
2023-03-17T04:08:58.505Z,5.72
2023-03-17T04:11:26.605Z,5.47
2023-03-17T04:13:53.285Z,5.29
2023-03-17T04:16:21.877Z,5.34
2023-03-17T04:18:48.357Z,5.19
2023-03-17T04:21:14.841Z,5.26
2023-03-17T04:23:41.266Z,5.18
2023-03-17T04:26:07.738Z,5.30
2023-03-17T04:28:34.153Z,5.35
2023-03-17T04:31:00.600Z,5.34
2023-03-17T04:33:28.017Z,5.43
2023-03-17T04:35:54.912Z,5.32
2023-03-17T04:38:22.180Z,5.14
2023-03-17T04:40:49.771Z,4.89
2023-03-17T04:43:16.163Z,4.99
2023-03-17T04:45:43.013Z,5.05
2023-03-17T04:48:09.601Z,5.23
2023-03-17T04:50:36.173Z,5.33
2023-03-17T04:53:03.793Z,5.46
2023-03-17T04:55:30.173Z,5.41
2023-03-17T04:57:56.591Z,5.16
2023-03-17T05:00:23.582Z,5.14
2023-03-17T05:02:50.184Z,4.80
2023-03-17T05:05:16.614Z,4.83
2023-03-17T05:07:43.362Z,4.74
2023-03-17T05:10:11.966Z,4.82
2023-03-17T05:12:38.403Z,4.93
2023-03-17T05:15:04.784Z,5.08
2023-03-17T05:17:31.728Z,5.15
2023-03-17T05:19:58.163Z,5.24
2023-03-17T05:22:24.904Z,5.30
2023-03-17T05:24:51.498Z,5.35
2023-03-17T05:27:18.081Z,5.36
2023-03-17T05:29:44.519Z,5.39
2023-03-17T05:32:10.938Z,5.40
2023-03-17T05:34:37.370Z,5.39
2023-03-17T05:37:03.760Z,5.41
2023-03-17T05:39:30.218Z,5.28
2023-03-17T05:41:57.650Z,5.26
2023-03-17T05:44:24.069Z,5.22
2023-03-17T05:46:50.483Z,5.27
2023-03-17T05:49:16.874Z,5.20
2023-03-17T05:51:43.302Z,5.14
2023-03-17T05:54:09.757Z,5.08
2023-03-17T05:56:36.153Z,5.04
2023-03-17T05:59:02.574Z,5.16
2023-03-17T06:01:28.991Z,5.29
2023-03-17T06:03:57.100Z,5.36
2023-03-17T06:06:24.746Z,5.43
2023-03-17T06:08:51.200Z,5.45
2023-03-17T06:11:17.789Z,5.40
2023-03-17T06:13:44.549Z,5.41
2023-03-17T06:16:11.181Z,5.05
2023-03-17T06:18:38.778Z,5.11
2023-03-17T06:21:05.401Z,5.28
2023-03-17T06:23:31.911Z,5.46
2023-03-17T06:25:58.486Z,5.60
2023-03-17T06:28:24.952Z,5.72
2023-03-17T06:30:52.141Z,5.82
2023-03-17T06:33:18.978Z,5.74
2023-03-17T06:35:45.409Z,5.24
2023-03-17T06:38:12.882Z,5.36
2023-03-17T06:40:39.541Z,5.47
2023-03-17T06:43:07.160Z,5.43
2023-03-17T06:45:33.796Z,5.58
2023-03-17T06:48:01.335Z,5.62
2023-03-17T06:50:27.915Z,5.38
2023-03-17T06:52:54.309Z,5.37
2023-03-17T06:55:20.753Z,5.56
2023-03-17T06:57:49.159Z,5.42
2023-03-17T07:00:17.327Z,5.64
2023-03-17T07:02:43.728Z,5.78
2023-03-17T07:05:10.122Z,5.37
2023-03-17T07:07:36.539Z,5.49
2023-03-17T07:10:03.801Z,5.79
2023-03-17T07:12:30.411Z,6.09
2023-03-17T07:14:56.828Z,6.28
2023-03-17T07:17:23.279Z,6.41
2023-03-17T07:19:49.697Z,6.56
2023-03-17T07:22:16.770Z,6.74
2023-03-17T07:24:43.328Z,6.88
2023-03-17T07:27:09.789Z,7.01
2023-03-17T07:29:36.249Z,7.16
2023-03-17T07:32:03.101Z,7.17
2023-03-17T07:34:29.532Z,7.24
2023-03-17T07:36:58.690Z,7.20
2023-03-17T07:39:25.120Z,7.07
2023-03-17T07:41:51.542Z,7.24
2023-03-17T07:44:17.988Z,7.45
2023-03-17T07:46:44.423Z,7.44
2023-03-17T07:49:11.251Z,7.54
2023-03-17T07:51:38.862Z,7.72
2023-03-17T07:54:05.437Z,7.66
2023-03-17T07:56:31.860Z,7.46
2023-03-17T07:58:58.647Z,7.56
2023-03-17T08:01:25.243Z,7.59
2023-03-17T08:03:51.707Z,7.70
2023-03-17T08:06:18.144Z,7.98
2023-03-17T08:08:44.544Z,8.21
2023-03-17T08:11:10.977Z,8.24
2023-03-17T08:13:37.395Z,8.37
2023-03-17T08:16:03.849Z,8.52
2023-03-17T08:18:30.277Z,8.63
2023-03-17T08:20:56.721Z,8.80
2023-03-17T08:23:23.217Z,8.90
2023-03-17T08:25:49.631Z,8.99
2023-03-17T08:28:16.716Z,9.15
2023-03-17T08:30:43.234Z,9.26
2023-03-17T08:33:09.929Z,9.28
2023-03-17T08:35:37.534Z,9.33
2023-03-17T08:38:03.969Z,9.40
2023-03-17T08:40:30.666Z,9.49
2023-03-17T08:42:57.349Z,9.53
2023-03-17T08:45:23.766Z,9.40
2023-03-17T08:47:50.164Z,9.44
2023-03-17T08:50:16.585Z,9.16
2023-03-17T08:52:43.026Z,8.52
2023-03-17T08:55:09.453Z,8.73
2023-03-17T08:57:36.909Z,8.99
2023-03-17T09:00:03.534Z,9.19
2023-03-17T09:02:30.172Z,9.31
2023-03-17T09:04:56.658Z,9.36
2023-03-17T09:07:23.418Z,9.42
2023-03-17T09:09:52.493Z,9.63
2023-03-17T09:12:18.960Z,9.76
2023-03-17T09:14:46.890Z,9.94
2023-03-17T09:17:14.567Z,10.18
2023-03-17T09:19:41.037Z,10.15
2023-03-17T09:22:07.605Z,10.25
2023-03-17T09:24:34.084Z,10.38
2023-03-17T09:27:00.815Z,10.53
2023-03-17T09:29:27.691Z,10.57
2023-03-17T09:31:54.401Z,10.37
2023-03-17T09:34:21.932Z,10.52
2023-03-17T09:36:48.408Z,10.60
2023-03-17T09:39:15.105Z,10.69
2023-03-17T09:41:41.513Z,10.77
2023-03-17T09:44:08.280Z,10.92
2023-03-17T09:46:34.918Z,10.97
2023-03-17T09:49:02.467Z,11.14
2023-03-17T09:51:29.058Z,11.31
2023-03-17T09:53:55.479Z,11.45
2023-03-17T09:56:21.890Z,11.45
2023-03-17T09:58:51.126Z,11.65
2023-03-17T10:01:18.486Z,11.35
2023-03-17T10:03:44.982Z,11.51
2023-03-17T10:06:13.306Z,11.66
2023-03-17T10:08:40.198Z,11.73
2023-03-17T10:11:06.638Z,11.79
2023-03-17T10:13:33.055Z,11.97
2023-03-17T10:15:59.490Z,12.06
2023-03-17T10:18:25.939Z,12.05
2023-03-17T10:20:52.353Z,12.24
2023-03-17T10:23:18.733Z,12.37
2023-03-17T10:25:46.310Z,12.37
2023-03-17T10:28:12.948Z,12.44
2023-03-17T10:30:40.517Z,12.52
2023-03-17T10:33:07.394Z,12.57
2023-03-17T10:35:34.009Z,12.60
2023-03-17T10:38:13.930Z,12.33
2023-03-17T10:40:40.951Z,12.45
2023-03-17T10:43:07.365Z,12.41
2023-03-17T10:45:33.840Z,12.29
2023-03-17T10:48:00.716Z,12.17
2023-03-17T10:50:27.310Z,12.28
2023-03-17T10:52:53.902Z,12.35
2023-03-17T10:55:20.796Z,12.14
2023-03-17T10:57:47.327Z,12.11
2023-03-17T11:00:13.743Z,12.13
2023-03-17T11:02:41.284Z,12.17
2023-03-17T11:05:08.832Z,12.24
2023-03-17T11:07:40.886Z,12.18
2023-03-17T11:10:07.465Z,12.14
2023-03-17T11:12:34.656Z,12.09
2023-03-17T11:15:02.250Z,12.35
2023-03-17T11:17:29.841Z,12.60
2023-03-17T11:19:57.455Z,12.62
2023-03-17T11:22:25.039Z,13.01
2023-03-17T11:24:51.480Z,13.50
2023-03-17T11:27:17.906Z,13.79
2023-03-17T11:29:44.291Z,13.86
2023-03-17T11:32:10.705Z,14.12
2023-03-17T11:34:37.169Z,14.24
2023-03-17T11:37:03.625Z,14.37
2023-03-17T11:39:32.177Z,14.43
2023-03-17T11:41:59.763Z,14.41
2023-03-17T11:44:27.374Z,14.57
2023-03-17T11:46:53.775Z,14.59
2023-03-17T11:49:20.537Z,14.63
2023-03-17T11:51:47.365Z,14.71
2023-03-17T11:54:14.719Z,14.65
2023-03-17T11:56:42.308Z,14.83
2023-03-17T11:59:08.733Z,14.79
2023-03-17T12:01:35.115Z,14.78
2023-03-17T12:04:02.176Z,14.74
2023-03-17T12:06:29.670Z,14.95
2023-03-17T12:08:56.102Z,14.86
2023-03-17T12:11:22.838Z,14.90
2023-03-17T12:13:49.744Z,14.99
2023-03-17T12:16:17.066Z,14.92
2023-03-17T12:18:44.634Z,14.92
2023-03-17T12:21:12.216Z,14.85
2023-03-17T12:23:38.804Z,14.78
2023-03-17T12:26:05.424Z,14.65
2023-03-17T12:28:32.245Z,14.67
2023-03-17T12:30:58.684Z,14.57
2023-03-17T12:33:25.114Z,14.59
2023-03-17T12:35:52.777Z,14.39
2023-03-17T12:38:20.336Z,14.41
2023-03-17T12:40:47.931Z,14.43
2023-03-17T12:43:14.504Z,14.40
2023-03-17T12:45:41.010Z,14.44
2023-03-17T12:48:07.463Z,14.56
2023-03-17T12:50:34.252Z,14.63
2023-03-17T12:53:01.075Z,14.58
2023-03-17T12:55:29.586Z,14.69
2023-03-17T12:57:57.038Z,14.79
2023-03-17T13:00:24.667Z,15.05
2023-03-17T13:02:51.165Z,15.16
2023-03-17T13:05:17.696Z,15.18
2023-03-17T13:07:44.419Z,15.30
2023-03-17T13:10:13.045Z,15.52
2023-03-17T13:12:40.609Z,15.27
2023-03-17T13:15:07.197Z,15.38
2023-03-17T13:17:33.815Z,15.48
2023-03-17T13:20:00.504Z,15.48
2023-03-17T13:22:29.104Z,15.44
2023-03-17T13:24:56.717Z,15.38
2023-03-17T13:27:23.496Z,14.82
2023-03-17T13:29:50.971Z,15.08
2023-03-17T13:32:18.462Z,14.90
2023-03-17T13:34:46.047Z,15.06
2023-03-17T13:37:12.639Z,15.42
2023-03-17T13:39:39.246Z,15.33
2023-03-17T13:42:17.237Z,15.62
2023-03-17T13:44:44.259Z,15.78
2023-03-17T13:47:10.693Z,15.79
2023-03-17T13:49:37.619Z,16.05
2023-03-17T13:52:05.218Z,15.91
2023-03-17T13:54:32.823Z,15.21
2023-03-17T13:57:00.409Z,15.34
2023-03-17T13:59:27.996Z,15.95
2023-03-17T14:01:56.579Z,16.11
2023-03-17T14:04:24.234Z,16.12
2023-03-17T14:06:52.794Z,16.58
2023-03-17T14:09:19.410Z,16.86
2023-03-17T14:11:47.969Z,17.20
2023-03-17T14:14:26.027Z,17.49
2023-03-17T14:17:00.329Z,17.64
2023-03-17T14:19:26.933Z,17.40
2023-03-17T14:21:53.516Z,17.49
2023-03-17T14:24:20.140Z,17.62
2023-03-17T14:26:46.735Z,16.91
2023-03-17T14:29:13.405Z,16.90
2023-03-17T14:31:40.099Z,16.92
2023-03-17T14:34:08.045Z,17.21
2023-03-17T14:36:35.252Z,16.61
2023-03-17T14:39:01.848Z,16.66
2023-03-17T14:41:28.430Z,16.94
2023-03-17T14:43:55.003Z,16.38
2023-03-17T14:46:22.672Z,16.82
2023-03-17T14:48:50.205Z,17.11
2023-03-17T14:51:17.896Z,17.29
2023-03-17T14:53:45.687Z,17.50
2023-03-17T14:56:12.695Z,17.65
2023-03-17T14:58:41.027Z,17.64
2023-03-17T15:01:07.674Z,17.67
2023-03-17T15:03:34.333Z,17.07
2023-03-17T15:06:01.973Z,16.84
2023-03-17T15:08:29.099Z,17.06
2023-03-17T15:10:56.304Z,17.24
2023-03-17T15:13:24.034Z,17.10
2023-03-17T15:15:51.606Z,17.20
2023-03-17T15:18:18.249Z,16.67
2023-03-17T15:20:45.124Z,16.89
2023-03-17T15:23:12.651Z,17.04
2023-03-17T15:25:39.517Z,16.90
2023-03-17T15:28:06.085Z,16.99
2023-03-17T15:30:46.270Z,17.15
2023-03-17T15:33:14.262Z,17.33
2023-03-17T15:35:45.985Z,17.37
2023-03-17T15:38:14.615Z,17.33
2023-03-17T15:40:41.261Z,16.93
2023-03-17T15:43:08.856Z,16.90
2023-03-17T15:45:37.570Z,16.94
2023-03-17T15:48:05.182Z,16.94
2023-03-17T15:50:31.920Z,17.01
2023-03-17T15:52:59.390Z,16.65
2023-03-17T15:55:28.413Z,16.44
2023-03-17T15:57:55.878Z,16.56
2023-03-17T16:00:26.666Z,16.58
2023-03-17T16:02:53.298Z,16.58
2023-03-17T16:05:20.062Z,16.65
2023-03-17T16:07:47.663Z,16.58
2023-03-17T16:10:14.556Z,16.60
2023-03-17T16:12:42.099Z,16.31
2023-03-17T16:15:20.291Z,16.10
2023-03-17T16:17:49.680Z,16.03
2023-03-17T16:20:17.666Z,16.03
2023-03-17T16:22:45.437Z,15.73
2023-03-17T16:25:12.441Z,15.78
2023-03-17T16:27:39.693Z,15.40
2023-03-17T16:30:06.578Z,15.36
2023-03-17T16:32:33.128Z,15.46
2023-03-17T16:34:59.639Z,15.59
2023-03-17T16:37:26.112Z,15.71
2023-03-17T16:39:52.680Z,15.77
2023-03-17T16:42:19.168Z,15.77
2023-03-17T16:44:45.701Z,15.79
2023-03-17T16:47:12.197Z,15.77
2023-03-17T16:49:39.399Z,15.75
2023-03-17T16:52:05.990Z,15.77
2023-03-17T16:54:32.840Z,15.75
2023-03-17T16:56:59.293Z,15.36
2023-03-17T16:59:26.806Z,15.12
2023-03-17T17:01:54.504Z,15.00
2023-03-17T17:04:22.039Z,14.97
2023-03-17T17:06:49.685Z,14.94
2023-03-17T17:09:17.433Z,14.95
2023-03-17T17:11:44.239Z,14.91
2023-03-17T17:14:11.201Z,14.70
2023-03-17T17:16:37.781Z,14.21
2023-03-17T17:19:04.303Z,14.26
2023-03-17T17:21:30.806Z,13.91
2023-03-17T17:23:57.334Z,13.89
2023-03-17T17:26:25.086Z,13.98
2023-03-17T17:28:51.810Z,14.07
2023-03-17T17:31:19.637Z,14.06
2023-03-17T17:33:46.435Z,14.13
2023-03-17T17:36:13.222Z,14.08
2023-03-17T17:38:40.782Z,14.10
2023-03-17T17:41:07.448Z,14.07
2023-03-17T17:43:35.066Z,14.06
2023-03-17T17:46:01.803Z,14.02
2023-03-17T17:48:29.634Z,13.96
2023-03-17T17:50:56.518Z,13.92
2023-03-17T17:53:23.901Z,13.77
2023-03-17T17:55:50.359Z,13.66
2023-03-17T17:58:17.149Z,13.58
2023-03-17T18:00:43.715Z,13.54
2023-03-17T18:03:10.188Z,13.44
2023-03-17T18:05:36.998Z,13.28
2023-03-17T18:08:03.657Z,12.98
2023-03-17T18:10:30.611Z,12.92
2023-03-17T18:12:57.198Z,12.81
2023-03-17T18:15:23.627Z,12.86
2023-03-17T18:17:50.041Z,12.94
2023-03-17T18:20:16.532Z,13.00
2023-03-17T18:22:43.581Z,13.02
2023-03-17T18:25:11.173Z,13.07
2023-03-17T18:27:37.807Z,13.06
2023-03-17T18:30:06.401Z,13.03
2023-03-17T18:32:33.031Z,12.95
2023-03-17T18:34:59.699Z,12.90
2023-03-17T18:37:26.355Z,12.86
2023-03-17T18:40:11.626Z,12.23
2023-03-17T18:42:39.712Z,12.13
2023-03-17T18:45:07.376Z,11.49
2023-03-17T18:47:33.836Z,11.67
2023-03-17T18:50:00.591Z,11.84
2023-03-17T18:52:28.182Z,11.98
2023-03-17T18:54:54.885Z,12.13
2023-03-17T18:57:21.514Z,12.24
2023-03-17T18:59:47.984Z,12.28
2023-03-17T19:02:15.040Z,12.33
2023-03-17T19:04:41.816Z,12.37
2023-03-17T19:07:09.511Z,12.37
2023-03-17T19:09:36.210Z,12.40
2023-03-17T19:12:03.059Z,12.34
2023-03-17T19:14:29.601Z,12.33
2023-03-17T19:16:56.352Z,12.35
2023-03-17T19:19:24.050Z,12.33
2023-03-17T19:21:50.871Z,12.33
2023-03-17T19:24:18.332Z,12.17
2023-03-17T19:26:45.054Z,12.06
2023-03-17T19:29:12.083Z,11.93
2023-03-17T19:31:39.739Z,11.86
2023-03-17T19:34:06.255Z,11.89
2023-03-17T19:36:32.712Z,11.89
2023-03-17T19:38:59.158Z,11.71
2023-03-17T19:41:25.603Z,11.66
2023-03-17T19:43:52.103Z,11.69
2023-03-17T19:46:19.165Z,11.57
2023-03-17T19:48:46.013Z,11.43
2023-03-17T19:51:12.493Z,11.52
2023-03-17T19:53:38.966Z,11.53
2023-03-17T19:56:05.971Z,11.44
2023-03-17T19:58:33.619Z,11.33
2023-03-17T20:01:00.340Z,11.37
2023-03-17T20:03:27.223Z,11.41
2023-03-17T20:05:53.691Z,11.42
2023-03-17T20:08:20.600Z,11.45
2023-03-17T20:10:48.199Z,11.46
2023-03-17T20:13:15.829Z,11.52
2023-03-17T20:15:43.452Z,11.57
2023-03-17T20:18:10.991Z,11.43
2023-03-17T20:20:38.117Z,11.10
2023-03-17T20:23:04.525Z,10.74
2023-03-17T20:25:30.993Z,10.67
2023-03-17T20:27:57.427Z,10.84
2023-03-17T20:30:23.890Z,10.96
2023-03-17T20:32:52.116Z,11.19
2023-03-17T20:35:19.657Z,11.35
2023-03-17T20:37:48.265Z,11.42
2023-03-17T20:40:16.104Z,11.27
2023-03-17T20:42:42.517Z,11.38
2023-03-17T20:45:09.031Z,11.52
2023-03-17T20:47:35.459Z,11.59
2023-03-17T20:50:02.494Z,11.67
2023-03-17T20:52:30.209Z,11.50
2023-03-17T20:54:56.840Z,11.53
2023-03-17T20:57:23.289Z,11.55
2023-03-17T20:59:49.726Z,11.46
2023-03-17T21:02:16.147Z,11.59
2023-03-17T21:04:43.079Z,11.72
2023-03-17T21:07:10.645Z,11.79
2023-03-17T21:09:37.356Z,11.80
2023-03-17T21:12:03.789Z,11.57
2023-03-17T21:14:30.232Z,11.22
2023-03-17T21:16:57.137Z,10.92
2023-03-17T21:19:24.722Z,10.59
2023-03-17T21:21:52.413Z,10.61
2023-03-17T21:24:18.987Z,10.52
2023-03-17T21:26:45.422Z,10.53
2023-03-17T21:29:12.200Z,10.49
2023-03-17T21:31:38.827Z,10.74
2023-03-17T21:34:06.336Z,10.96
2023-03-17T21:36:33.930Z,11.09
2023-03-17T21:39:01.540Z,11.28
2023-03-17T21:41:30.109Z,11.32
2023-03-17T21:43:57.733Z,11.40
2023-03-17T21:46:25.291Z,11.43
2023-03-17T21:48:51.886Z,11.30
2023-03-17T21:51:18.379Z,11.33
2023-03-17T21:53:44.852Z,11.36
2023-03-17T21:56:12.613Z,11.39
2023-03-17T21:58:39.371Z,11.43
2023-03-17T22:01:07.024Z,11.39
2023-03-17T22:03:33.555Z,11.41
2023-03-17T22:06:00.023Z,11.43
2023-03-17T22:08:27.850Z,11.45
2023-03-17T22:10:56.398Z,11.42
2023-03-17T22:13:23.061Z,11.36
2023-03-17T22:15:49.501Z,11.20
2023-03-17T22:18:15.976Z,11.04
2023-03-17T22:20:42.399Z,10.87
2023-03-17T22:23:08.846Z,10.91
2023-03-17T22:25:36.172Z,10.92
2023-03-17T22:28:03.811Z,10.95
2023-03-17T22:30:31.722Z,10.90
2023-03-17T22:32:59.077Z,10.90
2023-03-17T22:35:25.565Z,10.84
2023-03-17T22:37:52.029Z,10.85
2023-03-17T22:40:18.449Z,10.90
2023-03-17T22:42:44.938Z,10.80
2023-03-17T22:45:13.076Z,10.73
2023-03-17T22:47:39.721Z,10.66
2023-03-17T22:50:07.241Z,10.74
2023-03-17T22:52:34.816Z,10.82
2023-03-17T22:55:01.420Z,10.84
2023-03-17T22:57:28.999Z,10.74
2023-03-17T22:59:57.597Z,10.68
2023-03-17T23:02:24.191Z,10.62
2023-03-17T23:04:50.852Z,10.61
2023-03-17T23:07:18.455Z,10.68
2023-03-17T23:09:46.044Z,10.69
2023-03-17T23:12:13.629Z,10.72
2023-03-17T23:14:42.229Z,10.60
2023-03-17T23:17:10.978Z,10.71
2023-03-17T23:19:38.436Z,10.75
2023-03-17T23:22:07.036Z,10.75
2023-03-17T23:24:34.649Z,10.73
2023-03-17T23:27:02.256Z,10.75
2023-03-17T23:29:29.817Z,10.61
2023-03-17T23:31:56.297Z,10.50
2023-03-17T23:34:23.006Z,10.44
2023-03-17T23:36:50.590Z,10.12
2023-03-17T23:39:17.074Z,9.62
2023-03-17T23:41:43.511Z,9.68
2023-03-17T23:44:09.961Z,9.86
2023-03-17T23:46:36.406Z,10.06
2023-03-17T23:49:03.514Z,10.18
2023-03-17T23:51:31.116Z,10.29
2023-03-17T23:53:57.690Z,10.14
2023-03-17T23:56:24.270Z,10.20
2023-03-17T23:58:51.887Z,10.22
